States of Jersey

Home Log in

Channel Islands Terminal Aerodrome Forecasts (TAFs) issued Friday, 27 April 2018

Jersey Airport - EGJJ

270458Z 2706/2715 14012KT 9999 FEW015 BKN035 BECMG 2708/2710 14020G30KT TEMPO 2708/2715 6000 RA BKN015 BECMG 2710/2712 18025G35KT=

Guernsey Airport - EGJB

270458Z 2706/2715 14012KT 9999 FEW015 BKN035 BECMG 2708/2710 14020G30KT TEMPO 2708/2715 6000 RA BKN015 BECMG 2710/2712 18025G35KT=

Alderney Airport - EGJA

270458Z 2707/2715 Nil